Time;durP1;ratioP1;P1;durP2;ratioP2;P2;SDS_P1;SDS_P2;PMS_P1;PMS_P2;Temp;Humidity;BMP_temperature;BMP_pressure;BME280_temperature;BME280_humidity;BME280_pressure;Samples;Min_cycle;Max_cycle;Signal;HPM_P1;HPM_P2
2021/08/19 00:00:52;;;;;;;2.13;1.70;;;17.70;90.60;;;;;;5076179;28;20457;-79
2021/08/19 00:03:18;;;;;;;1.70;1.53;;;17.70;90.20;;;;;;5070201;28;20465;-77
2021/08/19 00:05:45;;;;;;;1.60;1.50;;;17.70;90.70;;;;;;5066136;28;20444;-81
2021/08/19 00:08:12;;;;;;;1.70;1.60;;;17.60;90.30;;;;;;5066909;28;20492;-81
2021/08/19 00:10:40;;;;;;;1.70;1.60;;;17.60;90.70;;;;;;5057285;28;20554;-79
2021/08/19 00:13:08;;;;;;;2.30;1.40;;;17.60;90.70;;;;;;5062314;28;20493;-80
2021/08/19 00:15:35;;;;;;;1.90;1.27;;;17.70;90.70;;;;;;5063157;28;20458;-79
2021/08/19 00:18:02;;;;;;;2.10;1.40;;;17.60;90.50;;;;;;5065493;28;20879;-80
2021/08/19 00:20:30;;;;;;;1.43;1.33;;;17.60;90.70;;;;;;5068505;28;20538;-81
2021/08/19 00:22:58;;;;;;;2.00;1.80;;;17.60;90.70;;;;;;5069593;28;20809;-80
2021/08/19 00:25:26;;;;;;;1.90;1.80;;;17.70;90.70;;;;;;5071431;28;20760;-81
2021/08/19 00:27:52;;;;;;;2.93;1.57;;;17.60;90.70;;;;;;5066304;28;20453;-82
2021/08/19 00:30:21;;;;;;;1.50;1.40;;;17.60;90.50;;;;;;5064542;28;20488;-80
2021/08/19 00:32:48;;;;;;;4.80;1.93;;;17.60;91.00;;;;;;5064930;28;20793;-79
2021/08/19 00:35:15;;;;;;;1.90;1.80;;;17.60;90.70;;;;;;5064831;28;20457;-80
2021/08/19 00:37:42;;;;;;;3.07;1.90;;;17.60;90.70;;;;;;5062019;28;20453;-80
2021/08/19 00:40:10;;;;;;;1.67;1.57;;;17.60;90.70;;;;;;5063947;28;20485;-79
2021/08/19 00:42:37;;;;;;;1.80;1.70;;;17.60;90.70;;;;;;5064261;28;20822;-80
2021/08/19 00:45:05;;;;;;;1.43;1.33;;;17.60;90.70;;;;;;5064942;28;20515;-80
2021/08/19 00:47:37;;;;;;;1.80;1.70;;;17.60;90.70;;;;;;5063638;28;20480;-80
2021/08/19 00:50:05;;;;;;;2.97;1.70;;;17.60;90.70;;;;;;5063191;28;20643;-80
2021/08/19 00:52:33;;;;;;;1.73;1.63;;;17.60;90.70;;;;;;5063876;28;20481;-81
2021/08/19 00:55:01;;;;;;;1.90;1.77;;;17.50;90.70;;;;;;5064516;28;20531;-80
2021/08/19 00:57:28;;;;;;;2.13;1.93;;;17.50;90.70;;;;;;5064368;28;20488;-80
2021/08/19 00:59:58;;;;;;;3.60;2.40;;;17.50;90.80;;;;;;5074519;28;20441;-79
2021/08/19 01:02:24;;;;;;;4.27;2.53;;;17.50;91.00;;;;;;5075688;28;20453;-80
2021/08/19 01:04:53;;;;;;;4.20;2.23;;;17.50;90.70;;;;;;5075668;28;20519;-80
2021/08/19 01:07:20;;;;;;;1.90;1.80;;;17.50;90.60;;;;;;5076094;28;20444;-80
2021/08/19 01:09:48;;;;;;;8.77;3.30;;;17.50;90.60;;;;;;5069306;28;20492;-80
2021/08/19 01:12:15;;;;;;;2.40;2.20;;;17.50;90.70;;;;;;5066583;28;20459;-80
2021/08/19 01:14:45;;;;;;;2.10;2.00;;;17.50;90.60;;;;;;5062244;28;20542;-79
2021/08/19 01:17:14;;;;;;;4.20;2.13;;;17.50;90.70;;;;;;5058782;28;20531;-79
2021/08/19 01:19:43;;;;;;;2.57;2.20;;;17.50;90.60;;;;;;5062877;28;20482;-78
2021/08/19 01:22:11;;;;;;;2.03;1.93;;;17.50;90.30;;;;;;5067495;28;20449;-82
2021/08/19 01:24:38;;;;;;;2.10;2.00;;;17.50;90.20;;;;;;5075813;28;21003;-81
2021/08/19 01:27:05;;;;;;;2.20;2.10;;;17.50;90.10;;;;;;5066955;28;20437;-79
2021/08/19 01:29:34;;;;;;;2.73;2.13;;;17.50;90.30;;;;;;5058797;28;20539;-78
2021/08/19 01:32:02;;;;;;;3.23;2.37;;;17.50;90.30;;;;;;5059565;28;20452;-79
2021/08/19 01:34:31;;;;;;;4.23;2.10;;;17.50;90.20;;;;;;5058008;28;20877;-79
2021/08/19 01:36:58;;;;;;;3.17;1.70;;;17.50;90.30;;;;;;5064611;28;20419;-79
2021/08/19 01:39:26;;;;;;;3.07;1.93;;;17.50;90.30;;;;;;5059347;28;20451;-80
2021/08/19 01:41:53;;;;;;;3.00;2.53;;;17.50;90.30;;;;;;5058024;28;20416;-80
2021/08/19 01:44:21;;;;;;;2.50;2.30;;;17.50;90.00;;;;;;5059666;28;20480;-79
2021/08/19 01:46:53;;;;;;;2.50;2.27;;;17.50;90.00;;;;;;5057690;28;20420;-79
2021/08/19 01:49:20;;;;;;;2.50;2.27;;;17.50;90.00;;;;;;5058384;28;20469;-80
2021/08/19 01:51:47;;;;;;;2.50;2.20;;;17.40;90.00;;;;;;5064144;28;20506;-80
2021/08/19 01:54:14;;;;;;;3.50;2.83;;;17.50;89.70;;;;;;5063497;28;20547;-81
2021/08/19 01:56:41;;;;;;;2.23;2.07;;;17.40;89.30;;;;;;5061688;28;20553;-79
2021/08/19 01:59:08;;;;;;;2.90;2.27;;;17.40;89.60;;;;;;5058476;28;20463;-78
2021/08/19 02:01:35;;;;;;;3.67;2.60;;;17.50;89.50;;;;;;5058030;28;20484;-79
2021/08/19 02:04:04;;;;;;;2.57;2.20;;;17.50;88.60;;;;;;5059896;28;20556;-78
2021/08/19 02:06:31;;;;;;;2.07;1.97;;;17.50;88.30;;;;;;5061533;28;20441;-79
2021/08/19 02:08:58;;;;;;;2.30;2.10;;;17.50;88.20;;;;;;5068834;28;20437;-81
2021/08/19 02:11:25;;;;;;;3.30;2.40;;;17.50;87.80;;;;;;5079361;28;20490;-82
2021/08/19 02:13:52;;;;;;;2.40;2.20;;;17.50;87.50;;;;;;5079189;28;20547;-84
2021/08/19 02:16:20;;;;;;;2.40;2.20;;;17.50;87.30;;;;;;5079009;28;20437;-83
2021/08/19 02:18:47;;;;;;;2.80;2.30;;;17.50;87.40;;;;;;5077030;28;20436;-81
2021/08/19 02:21:15;;;;;;;2.77;2.50;;;17.40;87.50;;;;;;5074474;28;20461;-82
2021/08/19 02:23:42;;;;;;;3.27;2.83;;;17.50;87.60;;;;;;5073275;28;20480;-81
2021/08/19 02:26:09;;;;;;;2.43;2.27;;;17.50;87.30;;;;;;5066830;28;20459;-79
2021/08/19 02:28:36;;;;;;;3.90;3.00;;;17.50;86.60;;;;;;5063093;28;20510;-80
2021/08/19 02:31:03;;;;;;;3.43;3.10;;;17.50;86.80;;;;;;5062075;28;20515;-79
2021/08/19 02:33:30;;;;;;;2.70;2.50;;;17.50;86.70;;;;;;5072417;28;20473;-81
2021/08/19 02:35:57;;;;;;;2.43;2.20;;;17.50;86.90;;;;;;5069734;28;20453;-79
2021/08/19 02:38:25;;;;;;;4.07;2.80;;;17.50;87.00;;;;;;5074956;28;20423;-80
2021/08/19 02:40:52;;;;;;;2.30;2.00;;;17.50;86.80;;;;;;5072993;28;20457;-80
2021/08/19 02:43:19;;;;;;;2.93;2.70;;;17.40;87.40;;;;;;5062920;28;20475;-77
2021/08/19 02:45:46;;;;;;;5.50;2.70;;;17.50;87.20;;;;;;5060335;28;20487;-79
2021/08/19 02:48:13;;;;;;;3.43;2.70;;;17.50;86.30;;;;;;5058762;28;20449;-80
2021/08/19 02:50:40;;;;;;;3.20;2.60;;;17.50;86.80;;;;;;5056686;28;20558;-79
2021/08/19 02:53:07;;;;;;;2.60;2.40;;;17.50;87.20;;;;;;5059795;28;20482;-79
2021/08/19 02:55:36;;;;;;;2.50;2.30;;;17.50;86.80;;;;;;5056989;28;20487;-80
2021/08/19 02:58:02;;;;;;;3.27;2.63;;;17.50;87.50;;;;;;5057293;28;20962;-79
2021/08/19 03:00:29;;;;;;;2.80;2.60;;;17.40;88.20;;;;;;5066446;28;20445;-79
2021/08/19 03:02:57;;;;;;;3.70;2.60;;;17.50;88.00;;;;;;5073851;28;20487;-81
2021/08/19 03:05:24;;;;;;;2.47;2.10;;;17.50;88.10;;;;;;5066881;28;20510;-80
2021/08/19 03:07:51;;;;;;;2.50;2.27;;;17.50;88.20;;;;;;5056912;28;20522;-79
2021/08/19 03:10:18;;;;;;;2.70;2.50;;;17.40;88.70;;;;;;5058120;28;20464;-79
2021/08/19 03:12:46;;;;;;;2.20;2.10;;;17.40;89.00;;;;;;5059941;28;20928;-80
2021/08/19 03:15:13;;;;;;;3.20;2.00;;;17.40;89.30;;;;;;5056288;28;20480;-78
2021/08/19 03:17:40;;;;;;;2.83;2.43;;;17.40;89.40;;;;;;5056610;28;20483;-79
2021/08/19 03:20:09;;;;;;;3.67;2.40;;;17.30;89.80;;;;;;5061564;28;20445;-81
2021/08/19 03:22:37;;;;;;;11.40;2.70;;;17.40;89.20;;;;;;5066859;28;20457;-81
2021/08/19 03:25:07;;;;;;;3.03;2.40;;;17.30;88.90;;;;;;5078348;22;20488;-79
2021/08/19 03:27:34;;;;;;;2.50;2.30;;;17.30;89.10;;;;;;5054971;28;20551;-79
2021/08/19 03:30:02;;;;;;;2.43;2.30;;;17.40;88.10;;;;;;5057924;28;20460;-79
2021/08/19 03:32:29;;;;;;;2.97;2.60;;;17.40;87.40;;;;;;5060842;28;20549;-79
2021/08/19 03:34:56;;;;;;;2.40;2.10;;;17.40;87.50;;;;;;5086095;22;20531;-79
2021/08/19 03:37:24;;;;;;;2.93;2.73;;;17.40;87.10;;;;;;5079554;28;20509;-80
2021/08/19 03:39:51;;;;;;;2.47;2.33;;;17.50;86.80;;;;;;5077521;28;20546;-79
2021/08/19 03:42:18;;;;;;;2.70;2.13;;;17.50;86.60;;;;;;5075896;28;20505;-78
2021/08/19 03:44:45;;;;;;;2.77;2.47;;;17.40;87.20;;;;;;5076341;28;20789;-78
2021/08/19 03:47:13;;;;;;;4.93;2.80;;;17.50;87.60;;;;;;5078624;28;20437;-79
2021/08/19 03:49:40;;;;;;;4.30;2.37;;;17.40;88.00;;;;;;5075667;28;20491;-78
2021/08/19 03:52:07;;;;;;;2.73;2.40;;;17.40;88.40;;;;;;5074263;28;20568;-78
2021/08/19 03:54:34;;;;;;;2.80;2.10;;;17.40;88.70;;;;;;5075694;28;20481;-79
2021/08/19 03:57:01;;;;;;;2.90;2.30;;;17.40;88.90;;;;;;5074470;28;20452;-78
2021/08/19 03:59:28;;;;;;;2.40;2.20;;;17.40;89.00;;;;;;5073156;28;20210;-78
2021/08/19 04:01:55;;;;;;;2.20;2.07;;;17.40;88.60;;;;;;5073163;28;20447;-79
2021/08/19 04:04:23;;;;;;;2.50;2.10;;;17.40;89.20;;;;;;5073292;28;20482;-78
2021/08/19 04:06:50;;;;;;;2.50;2.30;;;17.40;89.10;;;;;;5073273;28;20521;-79
2021/08/19 04:09:17;;;;;;;2.27;2.13;;;17.40;89.00;;;;;;5073332;28;20839;-79
2021/08/19 04:11:44;;;;;;;2.97;2.50;;;17.40;89.40;;;;;;5073218;28;20884;-78
2021/08/19 04:14:11;;;;;;;2.10;1.90;;;17.40;89.50;;;;;;5072918;28;21004;-78
2021/08/19 04:16:38;;;;;;;2.60;2.40;;;17.40;89.40;;;;;;5073032;28;20791;-78
2021/08/19 04:19:05;;;;;;;2.67;2.47;;;17.40;89.40;;;;;;5074141;28;20527;-78
2021/08/19 04:21:33;;;;;;;2.70;2.27;;;17.50;89.30;;;;;;5073331;28;20456;-79
2021/08/19 04:24:00;;;;;;;2.40;2.20;;;17.50;89.80;;;;;;5079711;28;20464;-79
2021/08/19 04:26:28;;;;;;;2.60;2.40;;;17.50;89.00;;;;;;5073700;28;20463;-79
2021/08/19 04:28:55;;;;;;;2.53;2.27;;;17.50;88.60;;;;;;5073205;28;20494;-79
2021/08/19 04:31:21;;;;;;;2.27;2.17;;;17.50;89.00;;;;;;5073094;28;20494;-78
2021/08/19 04:33:48;;;;;;;2.17;1.97;;;17.50;89.20;;;;;;5072610;28;20549;-79
2021/08/19 04:36:15;;;;;;;2.37;2.17;;;17.50;89.20;;;;;;5072678;28;20483;-78
2021/08/19 04:38:43;;;;;;;1.90;1.80;;;17.50;89.20;;;;;;5075746;28;20494;-78
2021/08/19 04:41:10;;;;;;;2.60;2.40;;;17.50;89.90;;;;;;5075865;28;20555;-79
2021/08/19 04:43:37;;;;;;;5.00;2.23;;;17.50;89.40;;;;;;5075042;28;20488;-79
2021/08/19 04:46:04;;;;;;;2.60;2.23;;;17.50;89.90;;;;;;5078188;28;20517;-79
2021/08/19 04:48:31;;;;;;;2.23;2.00;;;17.50;89.20;;;;;;5096239;28;20456;-81
2021/08/19 04:50:58;;;;;;;3.77;2.70;;;17.50;89.70;;;;;;5083048;28;20483;-78
2021/08/19 04:53:25;;;;;;;2.43;2.07;;;17.50;89.40;;;;;;5078054;28;20535;-78
2021/08/19 04:55:53;;;;;;;3.03;2.20;;;17.50;89.00;;;;;;5077715;28;20458;-78
2021/08/19 04:58:20;;;;;;;2.17;1.90;;;17.60;88.80;;;;;;5077146;28;20448;-78
2021/08/19 05:00:48;;;;;;;3.77;2.73;;;17.60;88.50;;;;;;5077172;28;20460;-79
2021/08/19 05:03:16;;;;;;;3.97;2.70;;;17.60;88.00;;;;;;5077563;28;20834;-79
2021/08/19 05:05:43;;;;;;;2.60;2.40;;;17.70;87.10;;;;;;5076039;28;20849;-78
2021/08/19 05:08:10;;;;;;;3.70;2.80;;;17.70;86.70;;;;;;5076582;28;20446;-78
2021/08/19 05:10:37;;;;;;;2.67;2.47;;;17.70;86.30;;;;;;5075446;28;20527;-79
2021/08/19 05:13:05;;;;;;;3.17;2.87;;;17.70;85.50;;;;;;5075767;28;20488;-78
2021/08/19 05:15:32;;;;;;;3.00;2.67;;;17.80;83.40;;;;;;5075960;28;20470;-79
2021/08/19 05:17:59;;;;;;;3.27;2.97;;;17.80;83.40;;;;;;5075993;28;20555;-78
2021/08/19 05:20:26;;;;;;;2.80;2.10;;;17.80;83.40;;;;;;5075531;28;20518;-78
2021/08/19 05:22:53;;;;;;;4.70;2.87;;;17.80;83.40;;;;;;5076050;28;20487;-79
2021/08/19 05:25:20;;;;;;;3.13;2.70;;;17.90;83.50;;;;;;5077330;28;20502;-80
2021/08/19 05:27:46;;;;;;;3.20;2.67;;;17.90;83.50;;;;;;5076710;28;20551;-77
2021/08/19 05:30:15;;;;;;;2.70;2.30;;;18.00;83.40;;;;;;5077620;28;20447;-79
2021/08/19 05:32:42;;;;;;;2.90;2.70;;;18.00;84.20;;;;;;5077006;28;20485;-79
2021/08/19 05:35:10;;;;;;;2.43;2.23;;;18.00;83.40;;;;;;5076572;28;20480;-79
2021/08/19 05:37:37;;;;;;;3.27;2.43;;;17.90;83.50;;;;;;5080011;28;20520;-78
2021/08/19 05:40:04;;;;;;;4.80;2.53;;;17.90;83.50;;;;;;5076882;28;20456;-79
2021/08/19 05:42:31;;;;;;;2.50;2.30;;;18.00;83.60;;;;;;5078527;28;20511;-79
2021/08/19 05:44:58;;;;;;;3.10;2.40;;;18.00;83.60;;;;;;5078044;28;20503;-78
2021/08/19 05:47:27;;;;;;;3.80;2.90;;;18.00;85.40;;;;;;5078357;28;20522;-79
2021/08/19 05:49:54;;;;;;;2.40;2.30;;;18.00;85.70;;;;;;5089518;28;20452;-79
2021/08/19 05:52:21;;;;;;;2.60;2.40;;;18.10;86.20;;;;;;5087843;28;20511;-79
2021/08/19 05:54:49;;;;;;;3.00;2.80;;;18.10;86.80;;;;;;5094683;28;20468;-79
2021/08/19 05:57:17;;;;;;;3.33;2.57;;;18.20;87.10;;;;;;5095699;28;20451;-79
2021/08/19 05:59:44;;;;;;;2.67;2.47;;;18.20;86.90;;;;;;5095875;28;20440;-80
2021/08/19 06:02:11;;;;;;;4.93;3.20;;;18.20;86.90;;;;;;5096606;28;20508;-80
2021/08/19 06:04:40;;;;;;;4.47;2.40;;;18.10;87.20;;;;;;5095809;28;20862;-79
2021/08/19 06:07:07;;;;;;;4.53;2.57;;;18.20;86.60;;;;;;5094776;28;20474;-79
2021/08/19 06:09:35;;;;;;;2.67;2.47;;;18.20;85.80;;;;;;5077596;28;20454;-79
2021/08/19 06:12:02;;;;;;;2.67;2.47;;;18.30;85.40;;;;;;5074707;28;21025;-79
2021/08/19 06:14:29;;;;;;;2.27;2.07;;;18.20;86.40;;;;;;5075461;28;20473;-79
2021/08/19 06:16:56;;;;;;;3.83;2.43;;;18.20;86.00;;;;;;5077483;28;20453;-80
2021/08/19 06:19:25;;;;;;;2.57;2.37;;;18.20;86.90;;;;;;5077918;28;20492;-79
2021/08/19 06:21:54;;;;;;;3.87;2.87;;;18.20;88.10;;;;;;5078264;28;20540;-79
2021/08/19 06:24:21;;;;;;;3.73;2.80;;;18.30;87.60;;;;;;5077846;28;20500;-80
2021/08/19 06:26:48;;;;;;;6.20;2.50;;;18.20;88.70;;;;;;5077867;28;20517;-79
2021/08/19 06:29:14;;;;;;;3.20;2.30;;;18.20;89.10;;;;;;5077710;28;20472;-79
2021/08/19 06:31:41;;;;;;;3.13;2.33;;;18.10;90.10;;;;;;5079181;28;20515;-79
2021/08/19 06:34:08;;;;;;;3.87;2.47;;;18.20;89.90;;;;;;5077626;28;21011;-79
2021/08/19 06:36:35;;;;;;;3.70;2.40;;;18.20;88.00;;;;;;5077645;28;20550;-79
2021/08/19 06:39:04;;;;;;;2.90;2.60;;;18.20;89.00;;;;;;5076629;28;20453;-79
2021/08/19 06:41:31;;;;;;;3.00;2.33;;;18.10;90.50;;;;;;5078566;28;20419;-79
2021/08/19 06:43:58;;;;;;;3.80;2.50;;;18.20;91.00;;;;;;5077415;28;20518;-80
2021/08/19 06:46:25;;;;;;;2.70;2.50;;;18.20;92.00;;;;;;5077186;28;20486;-79
2021/08/19 06:48:52;;;;;;;3.80;3.13;;;18.20;91.00;;;;;;5091170;28;20445;-80
2021/08/19 06:51:19;;;;;;;5.07;3.53;;;18.30;91.00;;;;;;5087550;28;20491;-79
2021/08/19 06:53:46;;;;;;;4.03;3.73;;;18.40;89.60;;;;;;5076016;28;20571;-78
2021/08/19 06:56:14;;;;;;;4.73;3.37;;;18.40;90.30;;;;;;5074058;28;20958;-79
2021/08/19 06:58:41;;;;;;;5.47;3.70;;;18.50;90.20;;;;;;5075230;28;20527;-80
2021/08/19 07:01:08;;;;;;;3.93;3.53;;;18.50;90.40;;;;;;5075090;28;20442;-79
2021/08/19 07:03:37;;;;;;;3.87;3.47;;;18.50;91.10;;;;;;5085813;28;20527;-79
2021/08/19 07:06:04;;;;;;;4.47;4.00;;;18.50;91.50;;;;;;5095422;28;20423;-79
2021/08/19 07:08:31;;;;;;;5.00;3.53;;;18.60;91.60;;;;;;5096128;28;20499;-80
2021/08/19 07:10:58;;;;;;;4.03;3.70;;;18.70;90.10;;;;;;5093655;28;20448;-79
2021/08/19 07:13:26;;;;;;;7.37;3.87;;;18.70;88.50;;;;;;5076067;28;20487;-78
2021/08/19 07:15:53;;;;;;;8.57;3.33;;;18.70;88.70;;;;;;5076184;28;20977;-77
2021/08/19 07:18:20;;;;;;;2.90;2.70;;;18.80;87.10;;;;;;5076759;28;20432;-78
2021/08/19 07:20:47;;;;;;;4.30;2.70;;;18.90;86.80;;;;;;5075050;28;20430;-77
2021/08/19 07:23:14;;;;;;;5.47;2.97;;;19.00;86.20;;;;;;5073982;28;20450;-78
2021/08/19 07:25:41;;;;;;;4.23;2.90;;;19.10;84.10;;;;;;5076451;28;20484;-80
2021/08/19 07:28:08;;;;;;;3.10;2.90;;;19.20;82.70;;;;;;5075072;28;20603;-79
2021/08/19 07:30:36;;;;;;;3.53;2.60;;;19.30;82.40;;;;;;5077344;28;20552;-79
2021/08/19 07:33:03;;;;;;;2.93;2.63;;;19.40;81.40;;;;;;5075374;28;20494;-79
2021/08/19 07:35:30;;;;;;;3.77;2.73;;;19.50;81.30;;;;;;5074354;28;20485;-79
2021/08/19 07:37:58;;;;;;;4.00;2.63;;;19.70;79.60;;;;;;5074128;28;20545;-80
2021/08/19 07:40:27;;;;;;;5.43;3.70;;;19.90;77.90;;;;;;5073140;28;20459;-78
2021/08/19 07:42:55;;;;;;;3.27;2.90;;;19.80;76.60;;;;;;5074546;28;20557;-79
2021/08/19 07:45:24;;;;;;;4.40;3.00;;;19.80;74.20;;;;;;5074539;28;20896;-80
2021/08/19 07:47:52;;;;;;;4.97;3.20;;;19.90;75.00;;;;;;5074555;28;20488;-79
2021/08/19 07:50:20;;;;;;;3.20;3.00;;;20.10;72.90;;;;;;5074167;28;20990;-79
2021/08/19 07:52:48;;;;;;;3.13;2.70;;;20.20;71.30;;;;;;5073864;28;20584;-79
2021/08/19 07:55:15;;;;;;;3.93;2.83;;;20.30;71.20;;;;;;5073689;28;21088;-78
2021/08/19 07:57:46;;;;;;;4.07;2.43;;;20.50;69.50;;;;;;5073369;28;20543;-78
2021/08/19 08:00:14;;;;;;;3.03;2.73;;;20.70;68.40;;;;;;5072856;28;20551;-78
2021/08/19 08:02:41;;;;;;;2.63;2.43;;;20.70;68.40;;;;;;5074544;28;20535;-80
2021/08/19 08:05:10;;;;;;;2.67;2.47;;;20.90;67.50;;;;;;5073090;28;20507;-79
2021/08/19 08:07:43;;;;;;;2.27;2.07;;;21.20;65.90;;;;;;5073550;28;20929;-79
2021/08/19 08:10:11;;;;;;;4.83;2.20;;;21.40;63.50;;;;;;5073803;28;20473;-79
2021/08/19 08:12:39;;;;;;;3.67;2.07;;;21.50;61.40;;;;;;5073750;28;20483;-79
2021/08/19 08:15:08;;;;;;;4.40;2.13;;;21.50;60.70;;;;;;5073486;28;20534;-79
2021/08/19 08:17:36;;;;;;;2.53;2.33;;;21.50;60.00;;;;;;5075938;28;20505;-78
2021/08/19 08:20:03;;;;;;;2.63;2.23;;;21.50;60.00;;;;;;5074219;28;20460;-79
2021/08/19 08:22:31;;;;;;;2.67;2.47;;;21.60;60.00;;;;;;5076879;28;20484;-78
2021/08/19 08:24:58;;;;;;;2.97;2.30;;;21.80;60.20;;;;;;5074841;28;20537;-79
2021/08/19 08:27:25;;;;;;;5.17;2.43;;;21.90;57.60;;;;;;5074805;28;20517;-79
2021/08/19 08:29:52;;;;;;;2.43;2.10;;;21.80;57.30;;;;;;5074535;28;20521;-79
2021/08/19 08:32:19;;;;;;;2.10;2.00;;;21.70;57.60;;;;;;5073727;28;20455;-78
2021/08/19 08:34:46;;;;;;;2.10;2.00;;;21.50;57.70;;;;;;5073148;28;20488;-79
2021/08/19 08:37:13;;;;;;;1.97;1.77;;;21.30;59.80;;;;;;5073642;28;20454;-80
2021/08/19 08:39:42;;;;;;;2.37;2.10;;;21.30;59.80;;;;;;5074109;28;20492;-78
2021/08/19 08:42:11;;;;;;;5.23;2.30;;;21.50;58.40;;;;;;5079297;28;20440;-79
2021/08/19 08:44:39;;;;;;;1.60;1.50;;;21.60;57.80;;;;;;5089977;28;20450;-78
2021/08/19 08:47:08;;;;;;;2.00;1.83;;;21.80;57.30;;;;;;5083442;28;20419;-78
2021/08/19 08:49:35;;;;;;;2.00;1.80;;;21.90;56.90;;;;;;5074090;28;20928;-79
2021/08/19 08:52:06;;;;;;;3.33;2.27;;;22.00;56.40;;;;;;5072624;28;20415;-80
2021/08/19 08:54:34;;;;;;;3.23;2.17;;;21.90;54.80;;;;;;5073091;28;20554;-78
2021/08/19 08:57:02;;;;;;;2.83;2.43;;;21.80;55.20;;;;;;5073551;28;20460;-79
2021/08/19 08:59:29;;;;;;;2.17;2.00;;;21.80;54.70;;;;;;5082583;28;20454;-79
2021/08/19 09:01:56;;;;;;;2.70;2.17;;;21.70;55.70;;;;;;5081299;28;20918;-79
2021/08/19 09:04:23;;;;;;;3.30;2.27;;;21.80;55.40;;;;;;5083059;28;20503;-79
2021/08/19 09:06:50;;;;;;;4.43;2.40;;;22.00;55.00;;;;;;5088113;28;20456;-79
2021/08/19 09:09:19;;;;;;;3.13;2.00;;;22.00;55.10;;;;;;5093901;28;20463;-81
2021/08/19 09:11:47;;;;;;;2.90;2.40;;;22.20;55.20;;;;;;5097153;28;20429;-83
2021/08/19 09:14:18;;;;;;;5.30;2.80;;;22.30;54.40;;;;;;5093713;28;20520;-78
2021/08/19 09:16:47;;;;;;;2.83;2.40;;;22.40;53.20;;;;;;5076780;28;20452;-78
2021/08/19 09:19:15;;;;;;;2.10;1.90;;;22.50;53.30;;;;;;5073559;28;20460;-78
2021/08/19 09:21:50;;;;;;;4.17;2.30;;;22.40;53.50;;;;;;5073100;28;20885;-79
2021/08/19 09:24:19;;;;;;;2.70;2.10;;;22.60;53.00;;;;;;5074684;28;20534;-79
2021/08/19 09:26:47;;;;;;;2.47;2.27;;;22.50;53.40;;;;;;5083917;28;20457;-79
2021/08/19 09:29:21;;;;;;;3.80;2.40;;;22.80;52.60;;;;;;5086131;28;20922;-79
2021/08/19 09:31:49;;;;;;;2.50;2.30;;;22.90;51.60;;;;;;5080567;28;20531;-79
2021/08/19 09:34:17;;;;;;;2.47;2.30;;;22.70;51.40;;;;;;5090445;22;20572;-80
2021/08/19 09:36:44;;;;;;;2.70;2.30;;;22.50;52.10;;;;;;5073154;28;20687;-80
2021/08/19 09:39:12;;;;;;;2.47;2.27;;;22.40;51.90;;;;;;5073821;28;20619;-79
2021/08/19 09:41:51;;;;;;;2.57;2.20;;;22.40;52.50;;;;;;5065677;28;20564;-80
2021/08/19 09:44:32;;;;;;;2.00;1.90;;;22.80;51.50;;;;;;5064220;28;20481;-81
2021/08/19 09:46:59;;;;;;;2.80;2.00;;;23.00;51.70;;;;;;5063917;28;20485;-79
2021/08/19 09:49:29;;;;;;;2.73;1.80;;;22.70;51.40;;;;;;5067378;28;20457;-80
2021/08/19 09:52:17;;;;;;;2.90;2.37;;;22.60;51.30;;;;;;5063132;28;20462;-79
2021/08/19 09:54:44;;;;;;;2.00;1.87;;;22.80;51.50;;;;;;5060891;28;20473;-80
2021/08/19 09:57:11;;;;;;;2.40;2.20;;;23.20;51.80;;;;;;5068258;28;20462;-79
2021/08/19 09:59:43;;;;;;;3.00;1.87;;;23.20;50.80;;;;;;5070478;28;20453;-79
2021/08/19 10:02:11;;;;;;;2.53;2.20;;;23.50;50.30;;;;;;5076865;28;20473;-79
2021/08/19 10:04:38;;;;;;;2.20;2.00;;;23.80;48.90;;;;;;5078746;28;20483;-79
2021/08/19 10:07:05;;;;;;;2.70;2.50;;;23.60;48.90;;;;;;5078511;28;20458;-79
2021/08/19 10:09:33;;;;;;;5.47;2.27;;;23.50;49.70;;;;;;5079112;28;20463;-78
2021/08/19 10:12:00;;;;;;;2.90;2.10;;;23.60;48.90;;;;;;5079152;28;20418;-78
2021/08/19 10:14:28;;;;;;;2.50;2.30;;;23.70;48.50;;;;;;5078959;28;20462;-79
2021/08/19 10:16:58;;;;;;;4.70;2.20;;;23.90;48.50;;;;;;5078769;28;20445;-79
2021/08/19 10:19:30;;;;;;;2.13;1.70;;;23.90;48.10;;;;;;5078973;28;20443;-78
2021/08/19 10:22:03;;;;;;;5.27;2.10;;;24.00;48.00;;;;;;5078679;28;20431;-78
2021/08/19 10:24:34;;;;;;;2.10;1.90;;;24.50;47.00;;;;;;5077280;28;20475;-80
2021/08/19 10:27:09;;;;;;;2.57;2.37;;;24.60;46.00;;;;;;5070698;28;20415;-80
2021/08/19 10:29:48;;;;;;;1.93;1.83;;;24.70;45.30;;;;;;5069560;28;20460;-80
2021/08/19 10:32:25;;;;;;;2.10;1.90;;;24.60;45.60;;;;;;5070109;28;20502;-80
2021/08/19 10:35:11;;;;;;;2.50;2.27;;;24.80;45.10;;;;;;5072064;28;20488;-80
2021/08/19 10:38:04;;;;;;;3.10;2.40;;;24.80;45.70;;;;;;5071674;28;20519;-80
2021/08/19 10:40:41;;;;;;;2.40;2.20;;;24.60;45.80;;;;;;5065296;28;20428;-80
2021/08/19 10:43:38;;;;;;;2.37;2.10;;;24.90;44.90;;;;;;5070709;28;20481;-79
2021/08/19 10:46:06;;;;;;;2.50;2.30;;;25.00;43.50;;;;;;4991393;28;20965;-78
2021/08/19 10:48:51;;;;;;;2.77;1.90;;;24.90;44.40;;;;;;5057184;28;20423;-79
2021/08/19 10:51:19;;;;;;;3.50;1.83;;;25.20;43.60;;;;;;5061482;28;20524;-80
2021/08/19 10:53:46;;;;;;;2.50;1.87;;;24.90;43.40;;;;;;5067063;28;20497;-79
2021/08/19 10:56:22;;;;;;;2.07;1.80;;;24.80;43.60;;;;;;5066359;28;20506;-80
2021/08/19 10:58:49;;;;;;;2.00;1.60;;;25.00;43.50;;;;;;5061371;28;20482;-79
2021/08/19 11:01:25;;;;;;;3.10;1.87;;;25.10;43.60;;;;;;5060876;28;20457;-81
2021/08/19 11:03:54;;;;;;;2.23;2.03;;;24.70;41.70;;;;;;5059017;28;20512;-79
2021/08/19 11:06:24;;;;;;;2.00;1.80;;;24.20;42.70;;;;;;5059582;28;20456;-79
2021/08/19 11:08:54;;;;;;;2.53;1.90;;;24.40;42.90;;;;;;5058848;28;20443;-79
2021/08/19 11:11:30;;;;;;;2.20;2.00;;;24.30;43.40;;;;;;5059807;28;20456;-80
2021/08/19 11:14:02;;;;;;;1.87;1.77;;;24.30;43.60;;;;;;5060475;28;20500;-79
2021/08/19 11:16:29;;;;;;;1.90;1.80;;;24.40;43.80;;;;;;5070919;28;20563;-80
2021/08/19 11:19:11;;;;;;;2.17;2.07;;;24.30;44.50;;;;;;5060024;28;20461;-80
2021/08/19 11:21:39;;;;;;;2.03;1.70;;;24.20;44.40;;;;;;5074763;28;20463;-79
2021/08/19 11:24:08;;;;;;;1.67;1.57;;;24.30;42.80;;;;;;5067184;28;20490;-79
2021/08/19 11:26:35;;;;;;;1.07;1.03;;;24.20;42.70;;;;;;5061038;28;20542;-79
2021/08/19 11:29:02;;;;;;;1.93;1.73;;;24.40;42.90;;;;;;5060668;28;20468;-79
2021/08/19 11:31:30;;;;;;;0.90;0.90;;;24.50;42.30;;;;;;5062723;28;20438;-79
2021/08/19 11:34:02;;;;;;;5.37;1.27;;;24.60;41.90;;;;;;5061828;28;20456;-79
2021/08/19 11:36:31;;;;;;;2.30;1.30;;;24.80;41.00;;;;;;5064140;28;20679;-81
2021/08/19 11:38:59;;;;;;;1.50;1.40;;;24.80;40.80;;;;;;5068119;28;20470;-80
2021/08/19 11:41:27;;;;;;;2.13;1.07;;;25.20;39.60;;;;;;5066231;28;20533;-80
2021/08/19 11:43:59;;;;;;;1.77;1.23;;;25.30;39.40;;;;;;5062294;28;20468;-80
2021/08/19 11:46:27;;;;;;;1.50;1.40;;;25.30;39.50;;;;;;5061363;28;20526;-79
2021/08/19 11:48:56;;;;;;;1.43;1.20;;;25.20;40.10;;;;;;5070000;28;20457;-80
2021/08/19 11:51:30;;;;;;;1.80;1.70;;;25.20;40.30;;;;;;5070827;28;20484;-81
2021/08/19 11:53:59;;;;;;;3.63;1.80;;;25.30;40.10;;;;;;5061510;28;20504;-80
2021/08/19 11:56:28;;;;;;;1.70;1.50;;;25.50;39.40;;;;;;5061707;28;20443;-81
2021/08/19 11:59:03;;;;;;;2.17;2.00;;;25.30;39.50;;;;;;5062340;28;20438;-81
2021/08/19 12:01:31;;;;;;;3.67;1.70;;;25.40;39.70;;;;;;5073225;28;20490;-80
2021/08/19 12:03:59;;;;;;;1.77;1.67;;;25.40;40.20;;;;;;5073516;28;20560;-80
2021/08/19 12:06:28;;;;;;;1.77;1.67;;;25.20;41.50;;;;;;5062418;28;20463;-79
2021/08/19 12:08:57;;;;;;;3.10;1.70;;;25.20;40.10;;;;;;5063688;28;20547;-81
2021/08/19 12:11:26;;;;;;;1.30;1.20;;;25.30;40.10;;;;;;5062086;28;20940;-81
2021/08/19 12:13:54;;;;;;;1.33;1.23;;;25.30;40.20;;;;;;5060412;28;20524;-80
2021/08/19 12:16:22;;;;;;;1.63;1.20;;;25.60;39.20;;;;;;5059362;28;20453;-79
2021/08/19 12:19:15;;;;;;;1.80;1.50;;;25.60;39.20;;;;;;5059219;28;20469;-79
2021/08/19 12:21:56;;;;;;;1.33;1.20;;;25.50;39.30;;;;;;5041887;28;20444;-81
2021/08/19 12:24:29;;;;;;;1.47;1.10;;;25.40;38.30;;;;;;5060540;28;20552;-80
2021/08/19 12:27:10;;;;;;;1.70;1.37;;;25.20;38.40;;;;;;5059067;28;20446;-80
2021/08/19 12:29:39;;;;;;;1.10;1.00;;;24.90;39.60;;;;;;5060633;28;20427;-80
2021/08/19 12:32:20;;;;;;;3.10;1.33;;;24.60;40.10;;;;;;5059311;28;20439;-80
2021/08/19 12:34:57;;;;;;;1.27;1.17;;;24.60;40.70;;;;;;5061376;28;20503;-79
2021/08/19 12:37:26;;;;;;;1.50;1.30;;;24.80;39.90;;;;;;5062386;28;20464;-81
2021/08/19 12:39:53;;;;;;;2.03;1.60;;;24.80;39.30;;;;;;5061031;28;20543;-80
2021/08/19 12:42:21;;;;;;;1.57;1.47;;;24.80;39.80;;;;;;5065537;28;20447;-82
2021/08/19 12:45:04;;;;;;;3.77;1.50;;;24.90;39.50;;;;;;5076502;28;20467;-82
2021/08/19 12:47:36;;;;;;;2.30;1.20;;;24.90;41.10;;;;;;5076175;28;20462;-81
2021/08/19 12:50:04;;;;;;;2.60;1.40;;;25.10;40.10;;;;;;5076504;28;20452;-82
2021/08/19 12:52:33;;;;;;;1.63;1.00;;;25.30;38.10;;;;;;5076635;28;20441;-80
2021/08/19 12:55:13;;;;;;;1.63;1.00;;;25.30;37.30;;;;;;5076046;28;20482;-80